sensor_id;sensor_type;location;lat;lon;timestamp;P1;durP1;ratioP1;P2;durP2;ratioP2
75689;SDS011;64303;53.118;9.044;2023-07-29T00:02:09;16.92;;;11.35;;
75689;SDS011;64303;53.118;9.044;2023-07-29T00:04:38;16.38;;;9.88;;
75689;SDS011;64303;53.118;9.044;2023-07-29T00:07:04;14.23;;;9.73;;
75689;SDS011;64303;53.118;9.044;2023-07-29T00:09:31;14.43;;;9.60;;
75689;SDS011;64303;53.118;9.044;2023-07-29T00:11:57;18.40;;;10.90;;
75689;SDS011;64303;53.118;9.044;2023-07-29T00:14:24;19.38;;;13.27;;
75689;SDS011;64303;53.118;9.044;2023-07-29T00:16:51;16.52;;;11.40;;
75689;SDS011;64303;53.118;9.044;2023-07-29T00:19:17;17.98;;;11.35;;
75689;SDS011;64303;53.118;9.044;2023-07-29T00:21:46;22.70;;;11.35;;
75689;SDS011;64303;53.118;9.044;2023-07-29T00:24:13;17.35;;;11.25;;
75689;SDS011;64303;53.118;9.044;2023-07-29T00:26:39;27.27;;;12.02;;
75689;SDS011;64303;53.118;9.044;2023-07-29T00:29:06;17.35;;;10.73;;
75689;SDS011;64303;53.118;9.044;2023-07-29T00:31:33;18.00;;;11.07;;
75689;SDS011;64303;53.118;9.044;2023-07-29T00:34:00;16.05;;;9.88;;
75689;SDS011;64303;53.118;9.044;2023-07-29T00:36:26;14.00;;;9.32;;
75689;SDS011;64303;53.118;9.044;2023-07-29T00:38:54;14.38;;;10.13;;
75689;SDS011;64303;53.118;9.044;2023-07-29T00:41:22;13.02;;;10.27;;
75689;SDS011;64303;53.118;9.044;2023-07-29T00:43:49;13.90;;;9.88;;
75689;SDS011;64303;53.118;9.044;2023-07-29T00:46:15;15.50;;;8.50;;
75689;SDS011;64303;53.118;9.044;2023-07-29T00:51:09;14.35;;;9.68;;
75689;SDS011;64303;53.118;9.044;2023-07-29T00:53:36;18.50;;;10.52;;
75689;SDS011;64303;53.118;9.044;2023-07-29T00:56:04;16.75;;;10.77;;
75689;SDS011;64303;53.118;9.044;2023-07-29T00:58:31;19.02;;;10.88;;
75689;SDS011;64303;53.118;9.044;2023-07-29T01:00:58;18.90;;;15.02;;
75689;SDS011;64303;53.118;9.044;2023-07-29T01:05:56;17.35;;;10.68;;
75689;SDS011;64303;53.118;9.044;2023-07-29T01:08:31;15.95;;;11.65;;
75689;SDS011;64303;53.118;9.044;2023-07-29T01:11:01;17.83;;;11.77;;
75689;SDS011;64303;53.118;9.044;2023-07-29T01:13:41;17.73;;;11.00;;
75689;SDS011;64303;53.118;9.044;2023-07-29T01:16:12;17.38;;;10.80;;
75689;SDS011;64303;53.118;9.044;2023-07-29T01:18:42;18.02;;;11.85;;
75689;SDS011;64303;53.118;9.044;2023-07-29T01:21:10;23.35;;;13.57;;
75689;SDS011;64303;53.118;9.044;2023-07-29T01:23:39;21.98;;;11.30;;
75689;SDS011;64303;53.118;9.044;2023-07-29T01:26:05;20.08;;;12.80;;
75689;SDS011;64303;53.118;9.044;2023-07-29T01:28:32;20.80;;;13.10;;
75689;SDS011;64303;53.118;9.044;2023-07-29T01:31:01;20.63;;;15.73;;
75689;SDS011;64303;53.118;9.044;2023-07-29T01:33:30;21.05;;;14.88;;
75689;SDS011;64303;53.118;9.044;2023-07-29T01:36:01;20.83;;;12.15;;
75689;SDS011;64303;53.118;9.044;2023-07-29T01:38:31;20.02;;;12.00;;
75689;SDS011;64303;53.118;9.044;2023-07-29T01:41:01;19.73;;;11.05;;
75689;SDS011;64303;53.118;9.044;2023-07-29T01:43:29;19.15;;;11.63;;
75689;SDS011;64303;53.118;9.044;2023-07-29T01:45:56;19.48;;;13.57;;
75689;SDS011;64303;53.118;9.044;2023-07-29T01:48:23;19.08;;;12.15;;
75689;SDS011;64303;53.118;9.044;2023-07-29T01:50:49;20.98;;;14.05;;
75689;SDS011;64303;53.118;9.044;2023-07-29T01:53:16;22.17;;;12.48;;
75689;SDS011;64303;53.118;9.044;2023-07-29T01:55:43;23.83;;;14.10;;
75689;SDS011;64303;53.118;9.044;2023-07-29T01:58:12;20.60;;;12.93;;
75689;SDS011;64303;53.118;9.044;2023-07-29T02:00:44;20.63;;;11.88;;
75689;SDS011;64303;53.118;9.044;2023-07-29T02:03:11;20.48;;;13.65;;
75689;SDS011;64303;53.118;9.044;2023-07-29T02:05:38;21.48;;;13.93;;
75689;SDS011;64303;53.118;9.044;2023-07-29T02:08:05;18.02;;;10.57;;
75689;SDS011;64303;53.118;9.044;2023-07-29T02:10:32;20.75;;;12.75;;
75689;SDS011;64303;53.118;9.044;2023-07-29T02:12:59;20.42;;;12.20;;
75689;SDS011;64303;53.118;9.044;2023-07-29T02:15:27;24.73;;;18.92;;
75689;SDS011;64303;53.118;9.044;2023-07-29T02:17:54;21.92;;;14.73;;
75689;SDS011;64303;53.118;9.044;2023-07-29T02:20:20;22.95;;;14.13;;
75689;SDS011;64303;53.118;9.044;2023-07-29T02:22:49;21.85;;;14.90;;
75689;SDS011;64303;53.118;9.044;2023-07-29T02:25:16;25.08;;;12.60;;
75689;SDS011;64303;53.118;9.044;2023-07-29T02:27:43;21.58;;;14.10;;
75689;SDS011;64303;53.118;9.044;2023-07-29T02:30:10;20.13;;;12.15;;
75689;SDS011;64303;53.118;9.044;2023-07-29T02:32:39;21.65;;;12.63;;
75689;SDS011;64303;53.118;9.044;2023-07-29T02:35:05;24.48;;;13.27;;
75689;SDS011;64303;53.118;9.044;2023-07-29T02:37:33;27.33;;;14.43;;
75689;SDS011;64303;53.118;9.044;2023-07-29T02:39:59;23.77;;;12.63;;
75689;SDS011;64303;53.118;9.044;2023-07-29T02:42:27;25.63;;;13.57;;
75689;SDS011;64303;53.118;9.044;2023-07-29T02:44:53;27.33;;;15.48;;
75689;SDS011;64303;53.118;9.044;2023-07-29T02:47:20;28.00;;;14.65;;
75689;SDS011;64303;53.118;9.044;2023-07-29T02:49:48;29.58;;;15.25;;
75689;SDS011;64303;53.118;9.044;2023-07-29T02:52:16;29.15;;;14.75;;
75689;SDS011;64303;53.118;9.044;2023-07-29T02:54:42;29.80;;;16.90;;
75689;SDS011;64303;53.118;9.044;2023-07-29T02:57:09;29.80;;;17.05;;
75689;SDS011;64303;53.118;9.044;2023-07-29T02:59:36;26.60;;;14.52;;
75689;SDS011;64303;53.118;9.044;2023-07-29T03:02:03;25.67;;;15.48;;
75689;SDS011;64303;53.118;9.044;2023-07-29T03:04:29;22.80;;;14.32;;
75689;SDS011;64303;53.118;9.044;2023-07-29T03:06:58;23.95;;;13.73;;
75689;SDS011;64303;53.118;9.044;2023-07-29T03:09:24;27.10;;;13.32;;
75689;SDS011;64303;53.118;9.044;2023-07-29T03:11:51;25.20;;;15.80;;
75689;SDS011;64303;53.118;9.044;2023-07-29T03:14:20;20.90;;;13.82;;
75689;SDS011;64303;53.118;9.044;2023-07-29T03:16:47;23.33;;;12.43;;
75689;SDS011;64303;53.118;9.044;2023-07-29T03:19:14;24.52;;;13.82;;
75689;SDS011;64303;53.118;9.044;2023-07-29T03:21:41;20.25;;;12.50;;
75689;SDS011;64303;53.118;9.044;2023-07-29T03:24:09;20.63;;;12.18;;
75689;SDS011;64303;53.118;9.044;2023-07-29T03:26:36;23.30;;;13.68;;
75689;SDS011;64303;53.118;9.044;2023-07-29T03:29:02;22.35;;;12.75;;
75689;SDS011;64303;53.118;9.044;2023-07-29T03:31:29;27.33;;;16.10;;
75689;SDS011;64303;53.118;9.044;2023-07-29T03:33:56;24.60;;;15.23;;
75689;SDS011;64303;53.118;9.044;2023-07-29T03:36:23;24.63;;;15.38;;
75689;SDS011;64303;53.118;9.044;2023-07-29T03:38:51;20.83;;;14.32;;
75689;SDS011;64303;53.118;9.044;2023-07-29T03:41:19;27.70;;;14.55;;
75689;SDS011;64303;53.118;9.044;2023-07-29T03:43:45;24.38;;;14.18;;
75689;SDS011;64303;53.118;9.044;2023-07-29T03:46:12;26.00;;;15.00;;
75689;SDS011;64303;53.118;9.044;2023-07-29T03:48:43;26.65;;;14.50;;
75689;SDS011;64303;53.118;9.044;2023-07-29T03:51:10;25.42;;;14.30;;
75689;SDS011;64303;53.118;9.044;2023-07-29T03:53:36;23.23;;;14.45;;
75689;SDS011;64303;53.118;9.044;2023-07-29T03:56:03;23.30;;;13.88;;
75689;SDS011;64303;53.118;9.044;2023-07-29T03:58:31;21.40;;;13.40;;
75689;SDS011;64303;53.118;9.044;2023-07-29T04:00:58;21.92;;;13.80;;
75689;SDS011;64303;53.118;9.044;2023-07-29T04:03:25;23.70;;;13.82;;
75689;SDS011;64303;53.118;9.044;2023-07-29T04:05:52;22.60;;;13.82;;
75689;SDS011;64303;53.118;9.044;2023-07-29T04:08:21;23.40;;;12.88;;
75689;SDS011;64303;53.118;9.044;2023-07-29T04:10:48;22.98;;;15.65;;
75689;SDS011;64303;53.118;9.044;2023-07-29T04:13:14;20.85;;;12.57;;
75689;SDS011;64303;53.118;9.044;2023-07-29T04:15:42;22.45;;;13.70;;
75689;SDS011;64303;53.118;9.044;2023-07-29T04:18:09;27.42;;;13.98;;
75689;SDS011;64303;53.118;9.044;2023-07-29T04:20:36;23.73;;;12.82;;
75689;SDS011;64303;53.118;9.044;2023-07-29T04:23:03;22.67;;;14.15;;
75689;SDS011;64303;53.118;9.044;2023-07-29T04:25:29;25.42;;;12.98;;
75689;SDS011;64303;53.118;9.044;2023-07-29T04:27:56;22.38;;;13.65;;
75689;SDS011;64303;53.118;9.044;2023-07-29T04:30:23;24.35;;;14.55;;
75689;SDS011;64303;53.118;9.044;2023-07-29T04:32:51;24.73;;;13.15;;
75689;SDS011;64303;53.118;9.044;2023-07-29T04:35:18;21.77;;;12.82;;
75689;SDS011;64303;53.118;9.044;2023-07-29T04:37:44;23.15;;;13.75;;
75689;SDS011;64303;53.118;9.044;2023-07-29T04:40:13;19.13;;;12.02;;
75689;SDS011;64303;53.118;9.044;2023-07-29T04:42:40;23.95;;;14.68;;
75689;SDS011;64303;53.118;9.044;2023-07-29T04:45:08;20.85;;;13.63;;
75689;SDS011;64303;53.118;9.044;2023-07-29T04:47:35;20.75;;;12.23;;
75689;SDS011;64303;53.118;9.044;2023-07-29T04:50:03;22.38;;;13.18;;
75689;SDS011;64303;53.118;9.044;2023-07-29T04:52:31;23.33;;;13.43;;
75689;SDS011;64303;53.118;9.044;2023-07-29T04:54:58;22.35;;;13.73;;
75689;SDS011;64303;53.118;9.044;2023-07-29T04:57:24;24.10;;;13.32;;
75689;SDS011;64303;53.118;9.044;2023-07-29T04:59:51;23.02;;;14.77;;
75689;SDS011;64303;53.118;9.044;2023-07-29T05:02:18;23.92;;;13.75;;
75689;SDS011;64303;53.118;9.044;2023-07-29T05:04:46;21.90;;;12.98;;
75689;SDS011;64303;53.118;9.044;2023-07-29T05:07:14;18.55;;;12.70;;
75689;SDS011;64303;53.118;9.044;2023-07-29T05:09:41;20.88;;;13.20;;
75689;SDS011;64303;53.118;9.044;2023-07-29T05:12:08;25.92;;;13.50;;
75689;SDS011;64303;53.118;9.044;2023-07-29T05:14:34;20.08;;;13.48;;
75689;SDS011;64303;53.118;9.044;2023-07-29T05:17:01;20.02;;;14.43;;
75689;SDS011;64303;53.118;9.044;2023-07-29T05:19:28;22.92;;;15.63;;
75689;SDS011;64303;53.118;9.044;2023-07-29T05:21:55;21.38;;;13.98;;
75689;SDS011;64303;53.118;9.044;2023-07-29T05:24:24;17.48;;;11.55;;
75689;SDS011;64303;53.118;9.044;2023-07-29T05:26:50;19.40;;;11.50;;
75689;SDS011;64303;53.118;9.044;2023-07-29T05:29:17;18.17;;;11.50;;
75689;SDS011;64303;53.118;9.044;2023-07-29T05:31:44;16.88;;;13.43;;
75689;SDS011;64303;53.118;9.044;2023-07-29T05:34:11;16.25;;;9.40;;
75689;SDS011;64303;53.118;9.044;2023-07-29T05:36:38;18.10;;;11.20;;
75689;SDS011;64303;53.118;9.044;2023-07-29T05:41:34;15.27;;;9.35;;
75689;SDS011;64303;53.118;9.044;2023-07-29T05:44:00;17.10;;;13.77;;
75689;SDS011;64303;53.118;9.044;2023-07-29T05:46:27;15.32;;;10.38;;
75689;SDS011;64303;53.118;9.044;2023-07-29T05:48:54;14.10;;;9.15;;
75689;SDS011;64303;53.118;9.044;2023-07-29T05:51:21;14.20;;;9.07;;
75689;SDS011;64303;53.118;9.044;2023-07-29T05:53:48;13.75;;;9.50;;
75689;SDS011;64303;53.118;9.044;2023-07-29T05:56:14;15.00;;;9.75;;
75689;SDS011;64303;53.118;9.044;2023-07-29T05:58:42;14.82;;;12.40;;
75689;SDS011;64303;53.118;9.044;2023-07-29T06:01:09;13.82;;;9.95;;
75689;SDS011;64303;53.118;9.044;2023-07-29T06:03:36;14.30;;;8.75;;
75689;SDS011;64303;53.118;9.044;2023-07-29T06:06:02;16.15;;;9.07;;
75689;SDS011;64303;53.118;9.044;2023-07-29T06:08:29;14.18;;;9.30;;
75689;SDS011;64303;53.118;9.044;2023-07-29T06:10:59;18.92;;;12.05;;
75689;SDS011;64303;53.118;9.044;2023-07-29T06:13:26;13.65;;;9.48;;
75689;SDS011;64303;53.118;9.044;2023-07-29T06:16:01;14.88;;;10.05;;
75689;SDS011;64303;53.118;9.044;2023-07-29T06:18:28;15.52;;;12.23;;
75689;SDS011;64303;53.118;9.044;2023-07-29T06:20:54;14.23;;;9.35;;
75689;SDS011;64303;53.118;9.044;2023-07-29T06:23:21;17.48;;;13.40;;
75689;SDS011;64303;53.118;9.044;2023-07-29T06:25:47;16.52;;;11.70;;
75689;SDS011;64303;53.118;9.044;2023-07-29T06:28:14;14.30;;;9.60;;
75689;SDS011;64303;53.118;9.044;2023-07-29T06:30:41;13.95;;;10.88;;
75689;SDS011;64303;53.118;9.044;2023-07-29T06:33:09;15.43;;;9.90;;
75689;SDS011;64303;53.118;9.044;2023-07-29T06:35:35;16.13;;;12.00;;
75689;SDS011;64303;53.118;9.044;2023-07-29T06:38:02;17.45;;;10.63;;
75689;SDS011;64303;53.118;9.044;2023-07-29T06:40:29;14.70;;;10.63;;
75689;SDS011;64303;53.118;9.044;2023-07-29T06:42:55;19.20;;;14.68;;
75689;SDS011;64303;53.118;9.044;2023-07-29T06:45:22;19.35;;;14.32;;
75689;SDS011;64303;53.118;9.044;2023-07-29T06:47:49;16.65;;;11.75;;
75689;SDS011;64303;53.118;9.044;2023-07-29T06:50:17;21.55;;;13.70;;
75689;SDS011;64303;53.118;9.044;2023-07-29T06:52:44;17.77;;;13.25;;
75689;SDS011;64303;53.118;9.044;2023-07-29T06:55:11;20.35;;;12.55;;
75689;SDS011;64303;53.118;9.044;2023-07-29T06:57:37;18.95;;;13.25;;
75689;SDS011;64303;53.118;9.044;2023-07-29T07:00:04;17.73;;;13.88;;
75689;SDS011;64303;53.118;9.044;2023-07-29T07:02:34;15.18;;;10.68;;
75689;SDS011;64303;53.118;9.044;2023-07-29T07:05:01;16.08;;;12.02;;
75689;SDS011;64303;53.118;9.044;2023-07-29T07:07:29;17.33;;;11.98;;
75689;SDS011;64303;53.118;9.044;2023-07-29T07:09:56;18.05;;;14.63;;
75689;SDS011;64303;53.118;9.044;2023-07-29T07:12:22;16.83;;;12.70;;
75689;SDS011;64303;53.118;9.044;2023-07-29T07:14:49;17.38;;;14.70;;
75689;SDS011;64303;53.118;9.044;2023-07-29T07:17:16;17.05;;;13.38;;
75689;SDS011;64303;53.118;9.044;2023-07-29T07:19:43;18.38;;;11.63;;
75689;SDS011;64303;53.118;9.044;2023-07-29T07:22:10;15.55;;;11.60;;
75689;SDS011;64303;53.118;9.044;2023-07-29T07:24:38;24.02;;;14.32;;
75689;SDS011;64303;53.118;9.044;2023-07-29T07:27:05;18.40;;;16.25;;
75689;SDS011;64303;53.118;9.044;2023-07-29T07:29:32;16.30;;;11.43;;
75689;SDS011;64303;53.118;9.044;2023-07-29T07:31:58;18.13;;;13.77;;
75689;SDS011;64303;53.118;9.044;2023-07-29T07:34:25;14.88;;;10.20;;
75689;SDS011;64303;53.118;9.044;2023-07-29T07:36:52;16.10;;;13.40;;
75689;SDS011;64303;53.118;9.044;2023-07-29T07:39:18;15.50;;;13.90;;
75689;SDS011;64303;53.118;9.044;2023-07-29T07:41:46;13.65;;;10.70;;
75689;SDS011;64303;53.118;9.044;2023-07-29T07:44:13;14.27;;;10.82;;
75689;SDS011;64303;53.118;9.044;2023-07-29T07:46:43;13.60;;;12.20;;
75689;SDS011;64303;53.118;9.044;2023-07-29T07:49:09;14.52;;;11.23;;
75689;SDS011;64303;53.118;9.044;2023-07-29T07:51:36;14.05;;;9.73;;
75689;SDS011;64303;53.118;9.044;2023-07-29T07:54:03;15.52;;;10.93;;
75689;SDS011;64303;53.118;9.044;2023-07-29T07:56:29;15.48;;;11.70;;
75689;SDS011;64303;53.118;9.044;2023-07-29T07:58:58;14.13;;;10.85;;
75689;SDS011;64303;53.118;9.044;2023-07-29T08:01:25;11.68;;;9.65;;
75689;SDS011;64303;53.118;9.044;2023-07-29T08:03:52;11.10;;;8.35;;
75689;SDS011;64303;53.118;9.044;2023-07-29T08:06:18;13.50;;;11.02;;
75689;SDS011;64303;53.118;9.044;2023-07-29T08:08:45;11.23;;;10.15;;
75689;SDS011;64303;53.118;9.044;2023-07-29T08:11:14;13.48;;;10.35;;
75689;SDS011;64303;53.118;9.044;2023-07-29T08:13:41;12.93;;;8.68;;
75689;SDS011;64303;53.118;9.044;2023-07-29T08:16:09;10.95;;;6.78;;
75689;SDS011;64303;53.118;9.044;2023-07-29T08:18:35;9.63;;;6.82;;
75689;SDS011;64303;53.118;9.044;2023-07-29T08:21:02;11.07;;;7.60;;
75689;SDS011;64303;53.118;9.044;2023-07-29T08:23:29;9.70;;;8.70;;
75689;SDS011;64303;53.118;9.044;2023-07-29T08:25:57;12.75;;;10.70;;
75689;SDS011;64303;53.118;9.044;2023-07-29T08:28:26;9.95;;;6.38;;
75689;SDS011;64303;53.118;9.044;2023-07-29T08:30:55;10.10;;;6.32;;
75689;SDS011;64303;53.118;9.044;2023-07-29T08:33:24;12.05;;;5.90;;
75689;SDS011;64303;53.118;9.044;2023-07-29T08:35:51;9.57;;;5.95;;
75689;SDS011;64303;53.118;9.044;2023-07-29T08:38:18;9.07;;;5.80;;
75689;SDS011;64303;53.118;9.044;2023-07-29T08:40:45;8.32;;;4.88;;
75689;SDS011;64303;53.118;9.044;2023-07-29T08:43:13;6.60;;;5.13;;
75689;SDS011;64303;53.118;9.044;2023-07-29T08:45:40;8.55;;;3.60;;
75689;SDS011;64303;53.118;9.044;2023-07-29T08:48:08;6.45;;;4.63;;
75689;SDS011;64303;53.118;9.044;2023-07-29T08:50:38;6.30;;;4.30;;
75689;SDS011;64303;53.118;9.044;2023-07-29T08:53:05;7.05;;;4.30;;
75689;SDS011;64303;53.118;9.044;2023-07-29T08:55:32;6.25;;;2.97;;
75689;SDS011;64303;53.118;9.044;2023-07-29T08:58:00;6.65;;;3.13;;
75689;SDS011;64303;53.118;9.044;2023-07-29T09:00:27;4.57;;;3.25;;
75689;SDS011;64303;53.118;9.044;2023-07-29T09:02:54;4.60;;;2.35;;
75689;SDS011;64303;53.118;9.044;2023-07-29T09:05:23;5.10;;;2.83;;
75689;SDS011;64303;53.118;9.044;2023-07-29T09:07:51;5.05;;;3.40;;
75689;SDS011;64303;53.118;9.044;2023-07-29T09:10:20;7.97;;;3.03;;
75689;SDS011;64303;53.118;9.044;2023-07-29T09:12:48;5.28;;;3.47;;
75689;SDS011;64303;53.118;9.044;2023-07-29T09:15:25;5.13;;;4.63;;
75689;SDS011;64303;53.118;9.044;2023-07-29T09:17:54;4.75;;;3.40;;
75689;SDS011;64303;53.118;9.044;2023-07-29T09:20:25;7.05;;;3.25;;
75689;SDS011;64303;53.118;9.044;2023-07-29T09:22:54;5.72;;;2.38;;
75689;SDS011;64303;53.118;9.044;2023-07-29T09:25:22;5.25;;;3.17;;
75689;SDS011;64303;53.118;9.044;2023-07-29T09:27:50;4.63;;;2.63;;
75689;SDS011;64303;53.118;9.044;2023-07-29T09:30:16;4.75;;;4.10;;
75689;SDS011;64303;53.118;9.044;2023-07-29T09:32:43;5.82;;;3.47;;
75689;SDS011;64303;53.118;9.044;2023-07-29T09:35:10;5.63;;;3.33;;
75689;SDS011;64303;53.118;9.044;2023-07-29T09:40:06;4.35;;;2.75;;
75689;SDS011;64303;53.118;9.044;2023-07-29T09:42:33;7.07;;;4.22;;
75689;SDS011;64303;53.118;9.044;2023-07-29T09:45:00;4.32;;;3.50;;
75689;SDS011;64303;53.118;9.044;2023-07-29T09:47:27;5.22;;;4.38;;
75689;SDS011;64303;53.118;9.044;2023-07-29T09:49:55;5.72;;;2.97;;
75689;SDS011;64303;53.118;9.044;2023-07-29T09:52:22;4.28;;;2.85;;
75689;SDS011;64303;53.118;9.044;2023-07-29T09:54:49;4.82;;;2.95;;
75689;SDS011;64303;53.118;9.044;2023-07-29T09:57:18;8.38;;;3.15;;
75689;SDS011;64303;53.118;9.044;2023-07-29T09:59:52;6.82;;;4.15;;
75689;SDS011;64303;53.118;9.044;2023-07-29T10:02:20;6.10;;;4.53;;
75689;SDS011;64303;53.118;9.044;2023-07-29T10:04:48;9.02;;;5.05;;
75689;SDS011;64303;53.118;9.044;2023-07-29T10:07:15;6.50;;;4.47;;
75689;SDS011;64303;53.118;9.044;2023-07-29T10:09:42;5.03;;;3.75;;
75689;SDS011;64303;53.118;9.044;2023-07-29T10:12:13;6.65;;;4.10;;
75689;SDS011;64303;53.118;9.044;2023-07-29T10:14:41;5.05;;;3.80;;
75689;SDS011;64303;53.118;9.044;2023-07-29T10:17:07;4.93;;;3.50;;
75689;SDS011;64303;53.118;9.044;2023-07-29T10:19:35;6.45;;;4.40;;
75689;SDS011;64303;53.118;9.044;2023-07-29T10:24:29;6.22;;;4.43;;
75689;SDS011;64303;53.118;9.044;2023-07-29T10:26:58;6.72;;;3.38;;
75689;SDS011;64303;53.118;9.044;2023-07-29T10:29:28;4.10;;;3.10;;
75689;SDS011;64303;53.118;9.044;2023-07-29T10:32:01;3.38;;;2.38;;
75689;SDS011;64303;53.118;9.044;2023-07-29T10:34:29;4.28;;;2.90;;
75689;SDS011;64303;53.118;9.044;2023-07-29T10:36:56;4.43;;;2.78;;
75689;SDS011;64303;53.118;9.044;2023-07-29T10:39:24;3.25;;;2.78;;
75689;SDS011;64303;53.118;9.044;2023-07-29T10:41:55;3.38;;;2.22;;
75689;SDS011;64303;53.118;9.044;2023-07-29T10:47:17;4.22;;;2.25;;
75689;SDS011;64303;53.118;9.044;2023-07-29T10:49:44;4.38;;;2.72;;
75689;SDS011;64303;53.118;9.044;2023-07-29T10:52:12;4.20;;;3.58;;
75689;SDS011;64303;53.118;9.044;2023-07-29T10:54:43;5.18;;;4.68;;
75689;SDS011;64303;53.118;9.044;2023-07-29T10:57:13;5.05;;;3.60;;
75689;SDS011;64303;53.118;9.044;2023-07-29T10:59:41;4.70;;;3.42;;
75689;SDS011;64303;53.118;9.044;2023-07-29T11:02:12;4.10;;;3.05;;
75689;SDS011;64303;53.118;9.044;2023-07-29T11:04:47;9.95;;;5.68;;
75689;SDS011;64303;53.118;9.044;2023-07-29T11:07:18;4.32;;;3.20;;
75689;SDS011;64303;53.118;9.044;2023-07-29T11:09:55;4.25;;;2.63;;
75689;SDS011;64303;53.118;9.044;2023-07-29T11:12:33;5.40;;;3.22;;
75689;SDS011;64303;53.118;9.044;2023-07-29T11:15:04;3.90;;;2.33;;
75689;SDS011;64303;53.118;9.044;2023-07-29T11:17:39;3.83;;;3.17;;
75689;SDS011;64303;53.118;9.044;2023-07-29T11:20:08;4.03;;;3.42;;
75689;SDS011;64303;53.118;9.044;2023-07-29T11:22:35;5.97;;;2.63;;
75689;SDS011;64303;53.118;9.044;2023-07-29T11:27:29;5.13;;;3.17;;
75689;SDS011;64303;53.118;9.044;2023-07-29T11:29:56;5.97;;;4.07;;
75689;SDS011;64303;53.118;9.044;2023-07-29T11:32:23;5.15;;;4.03;;
75689;SDS011;64303;53.118;9.044;2023-07-29T11:34:51;5.03;;;3.78;;
75689;SDS011;64303;53.118;9.044;2023-07-29T11:37:18;5.32;;;4.38;;
75689;SDS011;64303;53.118;9.044;2023-07-29T11:39:46;3.35;;;2.80;;
75689;SDS011;64303;53.118;9.044;2023-07-29T11:42:13;4.70;;;2.80;;
75689;SDS011;64303;53.118;9.044;2023-07-29T11:47:07;5.30;;;2.85;;
75689;SDS011;64303;53.118;9.044;2023-07-29T11:49:34;4.53;;;4.13;;
75689;SDS011;64303;53.118;9.044;2023-07-29T11:52:01;3.75;;;3.30;;
75689;SDS011;64303;53.118;9.044;2023-07-29T11:54:30;3.67;;;2.80;;
75689;SDS011;64303;53.118;9.044;2023-07-29T11:56:57;3.92;;;2.60;;
75689;SDS011;64303;53.118;9.044;2023-07-29T11:59:23;3.85;;;2.83;;
75689;SDS011;64303;53.118;9.044;2023-07-29T12:01:50;3.67;;;3.20;;
75689;SDS011;64303;53.118;9.044;2023-07-29T12:04:18;3.03;;;1.70;;
75689;SDS011;64303;53.118;9.044;2023-07-29T12:06:44;3.40;;;2.63;;
75689;SDS011;64303;53.118;9.044;2023-07-29T12:09:11;3.20;;;1.83;;
75689;SDS011;64303;53.118;9.044;2023-07-29T12:11:40;5.15;;;1.63;;
75689;SDS011;64303;53.118;9.044;2023-07-29T12:14:08;2.92;;;1.88;;
75689;SDS011;64303;53.118;9.044;2023-07-29T12:16:39;5.53;;;2.38;;
75689;SDS011;64303;53.118;9.044;2023-07-29T12:19:07;3.20;;;2.50;;
75689;SDS011;64303;53.118;9.044;2023-07-29T12:21:33;4.18;;;3.42;;
75689;SDS011;64303;53.118;9.044;2023-07-29T12:24:02;3.45;;;2.17;;
75689;SDS011;64303;53.118;9.044;2023-07-29T12:26:29;3.33;;;1.65;;
75689;SDS011;64303;53.118;9.044;2023-07-29T12:28:57;2.63;;;2.08;;
75689;SDS011;64303;53.118;9.044;2023-07-29T12:31:28;3.38;;;2.35;;
75689;SDS011;64303;53.118;9.044;2023-07-29T12:33:57;2.90;;;1.63;;
75689;SDS011;64303;53.118;9.044;2023-07-29T12:36:27;3.75;;;2.25;;
75689;SDS011;64303;53.118;9.044;2023-07-29T12:38:55;4.50;;;2.17;;
75689;SDS011;64303;53.118;9.044;2023-07-29T12:41:25;3.10;;;1.52;;
75689;SDS011;64303;53.118;9.044;2023-07-29T12:43:52;3.03;;;2.17;;
75689;SDS011;64303;53.118;9.044;2023-07-29T12:46:20;5.63;;;3.20;;
75689;SDS011;64303;53.118;9.044;2023-07-29T12:48:46;3.90;;;3.42;;
75689;SDS011;64303;53.118;9.044;2023-07-29T12:51:13;3.67;;;1.85;;
75689;SDS011;64303;53.118;9.044;2023-07-29T12:53:40;4.10;;;2.75;;
75689;SDS011;64303;53.118;9.044;2023-07-29T12:56:06;4.47;;;1.85;;
75689;SDS011;64303;53.118;9.044;2023-07-29T12:58:33;4.25;;;2.03;;
75689;SDS011;64303;53.118;9.044;2023-07-29T13:01:00;3.13;;;1.88;;
75689;SDS011;64303;53.118;9.044;2023-07-29T13:03:28;3.10;;;2.25;;
75689;SDS011;64303;53.118;9.044;2023-07-29T13:05:54;4.15;;;2.22;;
75689;SDS011;64303;53.118;9.044;2023-07-29T13:08:21;3.58;;;1.92;;
75689;SDS011;64303;53.118;9.044;2023-07-29T13:13:15;4.03;;;2.72;;
75689;SDS011;64303;53.118;9.044;2023-07-29T13:15:42;3.35;;;2.70;;
75689;SDS011;64303;53.118;9.044;2023-07-29T13:18:08;3.30;;;2.67;;
75689;SDS011;64303;53.118;9.044;2023-07-29T13:20:36;3.42;;;2.40;;
75689;SDS011;64303;53.118;9.044;2023-07-29T13:23:03;4.25;;;2.40;;
75689;SDS011;64303;53.118;9.044;2023-07-29T13:25:29;2.78;;;2.53;;
75689;SDS011;64303;53.118;9.044;2023-07-29T13:27:56;4.05;;;2.15;;
75689;SDS011;64303;53.118;9.044;2023-07-29T13:30:23;2.33;;;1.20;;
75689;SDS011;64303;53.118;9.044;2023-07-29T13:32:49;2.88;;;1.40;;
75689;SDS011;64303;53.118;9.044;2023-07-29T13:35:16;3.85;;;1.63;;
75689;SDS011;64303;53.118;9.044;2023-07-29T13:37:44;3.58;;;2.15;;
75689;SDS011;64303;53.118;9.044;2023-07-29T13:40:11;2.65;;;1.50;;
75689;SDS011;64303;53.118;9.044;2023-07-29T13:42:38;3.83;;;2.22;;
75689;SDS011;64303;53.118;9.044;2023-07-29T13:45:04;2.60;;;1.05;;
75689;SDS011;64303;53.118;9.044;2023-07-29T13:47:32;3.25;;;1.92;;
75689;SDS011;64303;53.118;9.044;2023-07-29T13:49:58;3.00;;;1.73;;
75689;SDS011;64303;53.118;9.044;2023-07-29T13:52:25;2.88;;;2.03;;
75689;SDS011;64303;53.118;9.044;2023-07-29T13:54:53;4.18;;;3.75;;
75689;SDS011;64303;53.118;9.044;2023-07-29T13:57:20;3.92;;;1.35;;
75689;SDS011;64303;53.118;9.044;2023-07-29T13:59:47;2.85;;;2.15;;
75689;SDS011;64303;53.118;9.044;2023-07-29T14:02:13;3.08;;;2.08;;
75689;SDS011;64303;53.118;9.044;2023-07-29T14:04:40;3.95;;;2.95;;
75689;SDS011;64303;53.118;9.044;2023-07-29T14:07:07;3.33;;;2.85;;
75689;SDS011;64303;53.118;9.044;2023-07-29T14:09:33;5.43;;;2.33;;
75689;SDS011;64303;53.118;9.044;2023-07-29T14:12:01;4.72;;;2.67;;
75689;SDS011;64303;53.118;9.044;2023-07-29T14:14:28;4.82;;;4.38;;
75689;SDS011;64303;53.118;9.044;2023-07-29T14:16:55;4.70;;;0.77;;
75689;SDS011;64303;53.118;9.044;2023-07-29T14:19:21;3.47;;;2.20;;
75689;SDS011;64303;53.118;9.044;2023-07-29T14:21:49;5.82;;;2.42;;
75689;SDS011;64303;53.118;9.044;2023-07-29T14:24:16;5.60;;;2.80;;
75689;SDS011;64303;53.118;9.044;2023-07-29T14:26:42;3.75;;;1.73;;
75689;SDS011;64303;53.118;9.044;2023-07-29T14:29:10;2.33;;;0.90;;
75689;SDS011;64303;53.118;9.044;2023-07-29T14:31:37;2.25;;;1.38;;
75689;SDS011;64303;53.118;9.044;2023-07-29T14:34:03;4.18;;;1.88;;
75689;SDS011;64303;53.118;9.044;2023-07-29T14:36:30;4.97;;;2.65;;
75689;SDS011;64303;53.118;9.044;2023-07-29T14:38:57;4.20;;;2.63;;
75689;SDS011;64303;53.118;9.044;2023-07-29T14:41:24;3.45;;;3.15;;
75689;SDS011;64303;53.118;9.044;2023-07-29T14:43:50;2.55;;;1.90;;
75689;SDS011;64303;53.118;9.044;2023-07-29T14:46:18;3.70;;;3.08;;
75689;SDS011;64303;53.118;9.044;2023-07-29T14:48:45;3.60;;;2.30;;
75689;SDS011;64303;53.118;9.044;2023-07-29T14:51:12;3.42;;;3.15;;
75689;SDS011;64303;53.118;9.044;2023-07-29T14:53:39;4.75;;;2.00;;
75689;SDS011;64303;53.118;9.044;2023-07-29T14:56:05;3.58;;;2.97;;
75689;SDS011;64303;53.118;9.044;2023-07-29T14:58:32;3.67;;;2.58;;